Johannesburg, South Africa

12:18 PM SAST on August 31, 2014 (GMT +0200)
IGAUTENG101 | Change Station
CLOSE
Current Station
Personal Weather Station
Location: Boksburg, GAUTENG
Elevation: 5466 ft
Nearby Weather Stations

Elev 5466 ft 26.16 °S, 28.28 °E | Updated 4 seconds ago

Clear
Clear
66.7 °F
Feels Like 66.7 °F
N
1.2
Wind Variable Wind from East
Gusts 5.4 mph

Today
High -- | Low -- °F
--% Chance of Precip.
Yesterday
High -- | Low -- °F
Precip. -- in
6:20 AM 5:54 PM
Waxing Crescent, 29% visible
Pressure 30.48 in
Visibility -9999.0 miles
Clouds
Dew Point 30 °F
Humidity 25%
Rainfall 0.00 in
Snow Depth Not available.
UV 0.0 out of 12
Pollen Not available.
Air Quality Not available.
Flu Activity Not available.
METAR FAOR 311000Z 05005KT 360V140 CAVOK 16/M07 Q1032 NOSIG

More Conditions Fewer Conditions

Pressure 30.48 in
Visibility -9999.0 miles
Clouds
Dew Point 30 °F
Humidity 25%
Rainfall 0.00 in
Snow Depth Not available.
UV 0.0 out of 12
Pollen Not available.
Air Quality Not available.
Flu Activity Not available.
METAR FAOR 311000Z 05005KT 360V140 CAVOK 16/M07 Q1032 NOSIG

More Conditions Fewer Conditions

10-Day Weather Forecast

Almanac

Astronomy

Aug. 31, 2014 Rise Set
Actual Time 6:20 AM SAST 5:54 PM SAST
Civil Twilight 5:57 AM SAST 6:17 PM SAST
Nautical Twilight 5:30 AM SAST 6:44 PM SAST
Astronomical Twilight 5:04 AM SAST 7:11 PM SAST
Moon 9:43 AM SAST 11:06 PM SAST
Length of Visible Light 12h 19m
Length of Day
11h 33m
Tomorrow will be 1m 27s longer.
Waxing Crescent, 29% of the Moon is Illuminated
Today
Waxing Crescent
Sep 2
First Quarter
Sep 8
Full
Sep 15
Last Quarter
Sep 24
New

Yesterday's Extremes

Country Highs Country Lows

Community

WunderPhotos

Upload Photos

1,748,834 photos uploaded!

Nearby

Snow Depth

Not available.

Earthquake Activity

City Distance Mag. Time & Date
No recent earthquake activity has been reported nearby.
Minimum magnitude displayed is 2.5.

Coastal Water Temperatures

Place Temperature
No Stations Reporting

Nearby Weather Stations